Time;durP1;ratioP1;P1;durP2;ratioP2;P2;SDS_P1;SDS_P2;PMS_P1;PMS_P2;Temp;Humidity;BMP_temperature;BMP_pressure;BME280_temperature;BME280_humidity;BME280_pressure;Samples;Min_cycle;Max_cycle;Signal;HPM_P1;HPM_P2
2023/03/26 00:00:00;;;;;;;1.2;1.2;;;;;;;8.6;100.0;100510;;;;
2023/03/26 00:01:00;;;;;;;1.2;1.2;;;;;;;8.7;100.0;100500;;;;
2023/03/26 00:02:00;;;;;;;1.2;1.2;;;;;;;8.7;100.0;100500;;;;
2023/03/26 00:03:00;;;;;;;1.2;1.2;;;;;;;8.7;100.0;100510;;;;
2023/03/26 00:04:00;;;;;;;1.2;1.2;;;;;;;8.7;100.0;100510;;;;
2023/03/26 00:05:00;;;;;;;1.2;1.2;;;;;;;8.6;100.0;100510;;;;
2023/03/26 00:06:02;;;;;;;1.2;1.2;;;;;;;8.6;100.0;100510;;;;
2023/03/26 00:07:00;;;;;;;1.2;1.2;;;;;;;8.7;100.0;100500;;;;
2023/03/26 00:08:00;;;;;;;1.2;1.2;;;;;;;8.7;100.0;100500;;;;
2023/03/26 00:09:00;;;;;;;1.2;1.2;;;;;;;8.7;100.0;100510;;;;
2023/03/26 00:10:00;;;;;;;1.2;1.2;;;;;;;8.7;100.0;100510;;;;
2023/03/26 00:11:01;;;;;;;1.2;1.2;;;;;;;8.7;100.0;100510;;;;
2023/03/26 00:12:00;;;;;;;1.2;1.2;;;;;;;8.7;100.0;100510;;;;
2023/03/26 00:13:00;;;;;;;1.2;1.2;;;;;;;8.6;100.0;100510;;;;
2023/03/26 00:14:01;;;;;;;1.2;1.2;;;;;;;8.6;100.0;100510;;;;
2023/03/26 00:15:00;;;;;;;1.2;1.2;;;;;;;8.7;100.0;100510;;;;
2023/03/26 00:16:00;;;;;;;1.2;1.2;;;;;;;8.7;100.0;100510;;;;
2023/03/26 00:17:01;;;;;;;1.2;1.2;;;;;;;8.7;100.0;100510;;;;
2023/03/26 00:18:00;;;;;;;1.2;1.2;;;;;;;8.7;100.0;100510;;;;
2023/03/26 00:19:00;;;;;;;1.2;1.2;;;;;;;8.7;100.0;100510;;;;
2023/03/26 00:20:00;;;;;;;1.2;1.2;;;;;;;8.7;100.0;100510;;;;
2023/03/26 00:21:01;;;;;;;1.2;1.2;;;;;;;8.8;100.0;100510;;;;
2023/03/26 00:22:02;;;;;;;1.2;1.2;;;;;;;8.8;100.0;100510;;;;
2023/03/26 00:23:00;;;;;;;1.2;1.2;;;;;;;8.7;100.0;100500;;;;
2023/03/26 00:24:03;;;;;;;1.2;1.2;;;;;;;8.7;100.0;100500;;;;
2023/03/26 00:25:00;;;;;;;1.2;1.2;;;;;;;8.8;100.0;100500;;;;
2023/03/26 00:26:01;;;;;;;1.2;1.2;;;;;;;8.8;100.0;100500;;;;
2023/03/26 00:27:00;;;;;;;1.2;1.2;;;;;;;8.8;100.0;100500;;;;
2023/03/26 00:28:00;;;;;;;1.2;1.2;;;;;;;8.8;100.0;100500;;;;
2023/03/26 00:29:02;;;;;;;1.2;1.2;;;;;;;8.8;100.0;100500;;;;
2023/03/26 00:30:00;;;;;;;1.2;1.2;;;;;;;8.8;100.0;100500;;;;
2023/03/26 00:31:01;;;;;;;1.2;1.2;;;;;;;8.8;100.0;100500;;;;
2023/03/26 00:32:00;;;;;;;1.2;1.2;;;;;;;8.8;100.0;100500;;;;
2023/03/26 00:33:01;;;;;;;1.2;1.2;;;;;;;8.8;100.0;100500;;;;
2023/03/26 00:34:02;;;;;;;1.2;1.2;;;;;;;8.8;100.0;100500;;;;
2023/03/26 00:35:01;;;;;;;1.2;1.2;;;;;;;8.8;100.0;100490;;;;
2023/03/26 00:36:04;;;;;;;1.1;1.1;;;;;;;8.8;100.0;100490;;;;
2023/03/26 00:37:01;;;;;;;1.1;1.1;;;;;;;8.8;100.0;100500;;;;
2023/03/26 00:38:00;;;;;;;1.1;1.1;;;;;;;8.8;100.0;100500;;;;
2023/03/26 00:39:03;;;;;;;1.1;1.1;;;;;;;8.8;100.0;100490;;;;
2023/03/26 00:40:05;;;;;;;1.1;1.1;;;;;;;8.8;100.0;100490;;;;
2023/03/26 00:41:04;;;;;;;1.1;1.1;;;;;;;8.8;100.0;100490;;;;
2023/03/26 00:42:05;;;;;;;1.1;1.1;;;;;;;8.8;100.0;100490;;;;
2023/03/26 00:43:01;;;;;;;1.1;1.1;;;;;;;8.8;100.0;100490;;;;
2023/03/26 00:44:00;;;;;;;1.1;1.1;;;;;;;8.8;100.0;100490;;;;
2023/03/26 00:45:00;;;;;;;1.1;1.1;;;;;;;8.8;100.0;100480;;;;
2023/03/26 00:46:01;;;;;;;1.1;1.1;;;;;;;8.8;100.0;100480;;;;
2023/03/26 00:47:00;;;;;;;1.1;1.1;;;;;;;8.7;100.0;100480;;;;
2023/03/26 00:48:02;;;;;;;1.1;1.1;;;;;;;8.7;100.0;100480;;;;
2023/03/26 00:49:02;;;;;;;1.1;1.1;;;;;;;8.6;100.0;100480;;;;
2023/03/26 00:50:00;;;;;;;1.1;1.1;;;;;;;8.6;100.0;100480;;;;
2023/03/26 00:51:00;;;;;;;1.1;1.1;;;;;;;8.6;100.0;100470;;;;
2023/03/26 00:52:01;;;;;;;1.1;1.1;;;;;;;8.6;100.0;100470;;;;
2023/03/26 00:53:00;;;;;;;1.1;1.1;;;;;;;8.6;100.0;100470;;;;
2023/03/26 00:54:00;;;;;;;1.1;1.1;;;;;;;8.6;100.0;100470;;;;
2023/03/26 00:55:00;;;;;;;1.1;1.1;;;;;;;8.6;100.0;100460;;;;
2023/03/26 00:56:00;;;;;;;1.0;1.0;;;;;;;8.6;100.0;100460;;;;
2023/03/26 00:57:00;;;;;;;1.0;1.0;;;;;;;8.6;100.0;100460;;;;
2023/03/26 00:58:00;;;;;;;1.0;1.0;;;;;;;8.6;100.0;100460;;;;
2023/03/26 00:59:00;;;;;;;1.0;1.0;;;;;;;8.5;100.0;100460;;;;
2023/03/26 01:00:13;;;;;;;1.0;1.0;;;;;;;8.5;100.0;100460;;;;
2023/03/26 01:01:02;;;;;;;1.0;1.0;;;;;;;8.4;100.0;100460;;;;
2023/03/26 01:02:00;;;;;;;1.0;1.0;;;;;;;8.4;100.0;100460;;;;
2023/03/26 01:03:01;;;;;;;1.0;1.0;;;;;;;8.5;100.0;100460;;;;
2023/03/26 01:04:12;;;;;;;1.0;1.0;;;;;;;8.5;100.0;100460;;;;
2023/03/26 01:05:10;;;;;;;1.0;1.0;;;;;;;8.4;100.0;100460;;;;
2023/03/26 01:06:03;;;;;;;1.0;1.0;;;;;;;8.4;100.0;100460;;;;
2023/03/26 01:07:02;;;;;;;1.0;1.0;;;;;;;8.3;100.0;100470;;;;
2023/03/26 01:08:13;;;;;;;1.0;1.0;;;;;;;8.3;100.0;100470;;;;
2023/03/26 01:09:03;;;;;;;1.0;1.0;;;;;;;8.2;100.0;100460;;;;
2023/03/26 01:10:00;;;;;;;1.0;1.0;;;;;;;8.2;100.0;100460;;;;
2023/03/26 01:11:05;;;;;;;1.0;1.0;;;;;;;8.2;100.0;100460;;;;
2023/03/26 01:12:01;;;;;;;1.0;1.0;;;;;;;8.2;100.0;100460;;;;
2023/03/26 01:13:00;;;;;;;1.0;1.0;;;;;;;8.2;100.0;100460;;;;
2023/03/26 01:14:01;;;;;;;1.0;1.0;;;;;;;8.2;100.0;100460;;;;
2023/03/26 01:15:01;;;;;;;1.0;1.0;;;;;;;8.2;100.0;100450;;;;
2023/03/26 01:16:00;;;;;;;1.4;1.4;;;;;;;8.2;100.0;100450;;;;
2023/03/26 01:17:01;;;;;;;1.4;1.4;;;;;;;8.2;100.0;100450;;;;
2023/03/26 01:18:03;;;;;;;1.4;1.4;;;;;;;8.2;100.0;100450;;;;
2023/03/26 01:19:00;;;;;;;1.4;1.4;;;;;;;8.1;100.0;100440;;;;
2023/03/26 01:20:12;;;;;;;1.4;1.4;;;;;;;8.1;100.0;100440;;;;
2023/03/26 01:21:04;;;;;;;1.4;1.4;;;;;;;8.2;100.0;100440;;;;
2023/03/26 01:22:00;;;;;;;1.4;1.4;;;;;;;8.2;100.0;100440;;;;
2023/03/26 01:23:04;;;;;;;1.4;1.4;;;;;;;8.1;100.0;100430;;;;
2023/03/26 01:24:00;;;;;;;1.4;1.4;;;;;;;8.1;100.0;100430;;;;
2023/03/26 01:25:00;;;;;;;1.4;1.4;;;;;;;8.1;100.0;100430;;;;
2023/03/26 01:26:04;;;;;;;1.4;1.4;;;;;;;8.1;100.0;100430;;;;
2023/03/26 01:27:08;;;;;;;1.4;1.4;;;;;;;8.2;100.0;100420;;;;
2023/03/26 01:28:00;;;;;;;1.4;1.4;;;;;;;8.2;100.0;100420;;;;
2023/03/26 01:29:02;;;;;;;1.4;1.4;;;;;;;8.1;100.0;100420;;;;
2023/03/26 01:30:00;;;;;;;1.4;1.4;;;;;;;8.1;100.0;100420;;;;
2023/03/26 01:31:08;;;;;;;1.4;1.4;;;;;;;8.1;100.0;100420;;;;
2023/03/26 01:32:10;;;;;;;1.4;1.4;;;;;;;8.1;100.0;100420;;;;
2023/03/26 01:33:04;;;;;;;1.4;1.4;;;;;;;8.0;100.0;100420;;;;
2023/03/26 01:34:11;;;;;;;1.4;1.4;;;;;;;8.0;100.0;100420;;;;
2023/03/26 01:35:11;;;;;;;1.4;1.4;;;;;;;8.0;100.0;100420;;;;
2023/03/26 01:36:05;;;;;;;1.2;1.2;;;;;;;8.0;100.0;100420;;;;
2023/03/26 01:37:11;;;;;;;1.2;1.2;;;;;;;8.1;100.0;100410;;;;
2023/03/26 01:38:09;;;;;;;1.2;1.2;;;;;;;8.1;100.0;100410;;;;
2023/03/26 01:39:08;;;;;;;1.2;1.2;;;;;;;8.1;100.0;100410;;;;
2023/03/26 01:40:05;;;;;;;1.2;1.2;;;;;;;8.1;100.0;100410;;;;
2023/03/26 01:41:08;;;;;;;1.2;1.2;;;;;;;8.0;100.0;100400;;;;
2023/03/26 01:42:03;;;;;;;1.2;1.2;;;;;;;8.0;100.0;100400;;;;
2023/03/26 01:43:08;;;;;;;1.2;1.2;;;;;;;7.9;100.0;100400;;;;
2023/03/26 01:44:05;;;;;;;1.2;1.2;;;;;;;7.9;100.0;100400;;;;
2023/03/26 01:45:06;;;;;;;1.2;1.2;;;;;;;8.0;100.0;100400;;;;
2023/03/26 01:46:02;;;;;;;1.2;1.2;;;;;;;8.0;100.0;100400;;;;
2023/03/26 01:47:00;;;;;;;1.2;1.2;;;;;;;7.9;100.0;100400;;;;
2023/03/26 01:48:00;;;;;;;1.2;1.2;;;;;;;7.9;100.0;100400;;;;
2023/03/26 01:49:01;;;;;;;1.2;1.2;;;;;;;7.8;100.0;100390;;;;
2023/03/26 01:50:00;;;;;;;1.2;1.2;;;;;;;7.8;100.0;100390;;;;
2023/03/26 01:51:00;;;;;;;1.2;1.2;;;;;;;8.0;100.0;100380;;;;
2023/03/26 01:52:01;;;;;;;1.2;1.2;;;;;;;8.0;100.0;100380;;;;
2023/03/26 01:53:00;;;;;;;1.2;1.2;;;;;;;7.9;100.0;100380;;;;
2023/03/26 01:54:02;;;;;;;1.2;1.2;;;;;;;7.9;100.0;100380;;;;
2023/03/26 01:55:01;;;;;;;1.2;1.2;;;;;;;7.8;100.0;100380;;;;
2023/03/26 01:56:11;;;;;;;1.8;1.7;;;;;;;7.8;100.0;100380;;;;
2023/03/26 01:57:10;;;;;;;1.8;1.7;;;;;;;7.8;100.0;100380;;;;
2023/03/26 01:58:10;;;;;;;1.8;1.7;;;;;;;7.8;100.0;100380;;;;
2023/03/26 01:59:07;;;;;;;1.8;1.7;;;;;;;7.8;100.0;100380;;;;
2023/03/26 02:00:10;;;;;;;1.8;1.7;;;;;;;7.8;100.0;100380;;;;
2023/03/26 02:01:05;;;;;;;1.8;1.7;;;;;;;7.6;100.0;100380;;;;
2023/03/26 02:02:03;;;;;;;1.8;1.7;;;;;;;7.6;100.0;100380;;;;
2023/03/26 02:03:16;;;;;;;1.8;1.7;;;;;;;7.7;100.0;100380;;;;
2023/03/26 02:04:00;;;;;;;1.8;1.7;;;;;;;7.7;100.0;100380;;;;
2023/03/26 02:05:06;;;;;;;1.8;1.7;;;;;;;7.7;100.0;100380;;;;
2023/03/26 02:06:06;;;;;;;1.8;1.7;;;;;;;7.7;100.0;100380;;;;
2023/03/26 02:07:10;;;;;;;1.8;1.7;;;;;;;7.6;100.0;100380;;;;
2023/03/26 02:08:10;;;;;;;1.8;1.7;;;;;;;7.6;100.0;100380;;;;
2023/03/26 02:09:03;;;;;;;1.8;1.7;;;;;;;7.6;100.0;100380;;;;
2023/03/26 02:10:05;;;;;;;1.8;1.7;;;;;;;7.6;100.0;100380;;;;
2023/03/26 02:11:03;;;;;;;1.8;1.7;;;;;;;7.6;100.0;100370;;;;
2023/03/26 02:12:02;;;;;;;1.8;1.7;;;;;;;7.6;100.0;100370;;;;
2023/03/26 02:13:00;;;;;;;1.8;1.7;;;;;;;7.6;100.0;100370;;;;
2023/03/26 02:14:00;;;;;;;1.8;1.7;;;;;;;7.6;100.0;100370;;;;
2023/03/26 02:15:00;;;;;;;1.8;1.7;;;;;;;7.5;100.0;100360;;;;
2023/03/26 02:16:01;;;;;;;1.3;1.3;;;;;;;7.5;100.0;100360;;;;
2023/03/26 02:17:00;;;;;;;1.3;1.3;;;;;;;7.4;100.0;100360;;;;
2023/03/26 02:18:00;;;;;;;1.3;1.3;;;;;;;7.4;100.0;100360;;;;
2023/03/26 02:19:00;;;;;;;1.3;1.3;;;;;;;7.5;100.0;100360;;;;
2023/03/26 02:20:04;;;;;;;1.3;1.3;;;;;;;7.5;100.0;100360;;;;
2023/03/26 02:21:00;;;;;;;1.3;1.3;;;;;;;7.5;100.0;100360;;;;
2023/03/26 02:22:00;;;;;;;1.3;1.3;;;;;;;7.5;100.0;100360;;;;
2023/03/26 02:23:00;;;;;;;1.3;1.3;;;;;;;7.4;100.0;100360;;;;
2023/03/26 02:24:01;;;;;;;1.3;1.3;;;;;;;7.4;100.0;100360;;;;
2023/03/26 02:25:00;;;;;;;1.3;1.3;;;;;;;7.4;100.0;100350;;;;
2023/03/26 02:26:02;;;;;;;1.3;1.3;;;;;;;7.4;100.0;100350;;;;
2023/03/26 02:27:01;;;;;;;1.3;1.3;;;;;;;7.4;100.0;100350;;;;
2023/03/26 02:28:00;;;;;;;1.3;1.3;;;;;;;7.4;100.0;100350;;;;
2023/03/26 02:29:00;;;;;;;1.3;1.3;;;;;;;7.3;100.0;100350;;;;
2023/03/26 02:30:01;;;;;;;1.3;1.3;;;;;;;7.3;100.0;100350;;;;
2023/03/26 02:31:02;;;;;;;1.3;1.3;;;;;;;7.4;100.0;100340;;;;
2023/03/26 02:32:01;;;;;;;1.3;1.3;;;;;;;7.4;100.0;100340;;;;
2023/03/26 02:33:00;;;;;;;1.3;1.3;;;;;;;7.3;100.0;100340;;;;
2023/03/26 02:34:00;;;;;;;1.3;1.3;;;;;;;7.3;100.0;100340;;;;
2023/03/26 02:35:00;;;;;;;1.3;1.3;;;;;;;7.3;100.0;100340;;;;
2023/03/26 02:36:01;;;;;;;1.4;1.4;;;;;;;7.3;100.0;100340;;;;
2023/03/26 02:37:00;;;;;;;1.4;1.4;;;;;;;7.3;100.0;100330;;;;
2023/03/26 02:38:00;;;;;;;1.4;1.4;;;;;;;7.3;100.0;100330;;;;
2023/03/26 02:39:00;;;;;;;1.4;1.4;;;;;;;7.3;100.0;100330;;;;
2023/03/26 02:40:00;;;;;;;1.4;1.4;;;;;;;7.3;100.0;100330;;;;
2023/03/26 02:41:00;;;;;;;1.4;1.4;;;;;;;7.3;100.0;100330;;;;
2023/03/26 02:42:00;;;;;;;1.4;1.4;;;;;;;7.3;100.0;100330;;;;
2023/03/26 02:43:00;;;;;;;1.4;1.4;;;;;;;7.3;100.0;100330;;;;
2023/03/26 02:44:00;;;;;;;1.4;1.4;;;;;;;7.3;100.0;100330;;;;
2023/03/26 02:45:00;;;;;;;1.4;1.4;;;;;;;7.3;100.0;100320;;;;
2023/03/26 02:46:00;;;;;;;1.4;1.4;;;;;;;7.3;100.0;100320;;;;
2023/03/26 02:47:00;;;;;;;1.4;1.4;;;;;;;7.3;100.0;100320;;;;
2023/03/26 02:48:00;;;;;;;1.4;1.4;;;;;;;7.3;100.0;100320;;;;
2023/03/26 02:49:00;;;;;;;1.4;1.4;;;;;;;7.2;100.0;100320;;;;
2023/03/26 02:50:00;;;;;;;1.4;1.4;;;;;;;7.2;100.0;100320;;;;
2023/03/26 02:51:01;;;;;;;1.4;1.4;;;;;;;7.2;100.0;100320;;;;
2023/03/26 02:52:00;;;;;;;1.4;1.4;;;;;;;7.2;100.0;100320;;;;
2023/03/26 02:53:00;;;;;;;1.4;1.4;;;;;;;7.2;100.0;100320;;;;
2023/03/26 02:54:00;;;;;;;1.4;1.4;;;;;;;7.2;100.0;100320;;;;
2023/03/26 02:55:00;;;;;;;1.5;1.5;;;;;;;7.2;100.0;100310;;;;
2023/03/26 02:56:00;;;;;;;1.5;1.5;;;;;;;7.2;100.0;100310;;;;
2023/03/26 02:57:00;;;;;;;1.5;1.5;;;;;;;7.2;100.0;100310;;;;
2023/03/26 02:58:00;;;;;;;1.5;1.5;;;;;;;7.2;100.0;100310;;;;
2023/03/26 02:59:00;;;;;;;1.5;1.5;;;;;;;7.3;100.0;100310;;;;
2023/03/26 03:00:01;;;;;;;1.5;1.5;;;;;;;7.3;100.0;100310;;;;
2023/03/26 03:01:01;;;;;;;1.5;1.5;;;;;;;7.2;100.0;100300;;;;
2023/03/26 03:02:00;;;;;;;1.5;1.5;;;;;;;7.2;100.0;100300;;;;
2023/03/26 03:03:03;;;;;;;1.5;1.5;;;;;;;7.3;100.0;100300;;;;
2023/03/26 03:04:02;;;;;;;1.5;1.5;;;;;;;7.3;100.0;100300;;;;
2023/03/26 03:05:00;;;;;;;1.5;1.5;;;;;;;7.2;100.0;100300;;;;
2023/03/26 03:06:00;;;;;;;1.5;1.5;;;;;;;7.2;100.0;100300;;;;
2023/03/26 03:07:00;;;;;;;1.5;1.5;;;;;;;7.2;100.0;100300;;;;
2023/03/26 03:08:00;;;;;;;1.5;1.5;;;;;;;7.2;100.0;100300;;;;
2023/03/26 03:09:01;;;;;;;1.5;1.5;;;;;;;7.2;100.0;100300;;;;
2023/03/26 03:10:01;;;;;;;1.5;1.5;;;;;;;7.2;100.0;100300;;;;
2023/03/26 03:11:01;;;;;;;1.5;1.5;;;;;;;7.2;100.0;100290;;;;
2023/03/26 03:12:00;;;;;;;1.5;1.5;;;;;;;7.2;100.0;100290;;;;
2023/03/26 03:13:00;;;;;;;1.5;1.5;;;;;;;7.3;100.0;100290;;;;
2023/03/26 03:14:00;;;;;;;1.5;1.5;;;;;;;7.3;100.0;100290;;;;
2023/03/26 03:15:00;;;;;;;1.5;1.5;;;;;;;7.3;100.0;100290;;;;
2023/03/26 03:16:00;;;;;;;1.5;1.5;;;;;;;7.3;100.0;100290;;;;
2023/03/26 03:17:00;;;;;;;1.5;1.5;;;;;;;7.3;100.0;100280;;;;
2023/03/26 03:18:00;;;;;;;1.5;1.5;;;;;;;7.3;100.0;100280;;;;
2023/03/26 03:19:00;;;;;;;1.5;1.5;;;;;;;7.3;100.0;100280;;;;
2023/03/26 03:20:00;;;;;;;1.5;1.5;;;;;;;7.3;100.0;100280;;;;
2023/03/26 03:21:01;;;;;;;1.5;1.5;;;;;;;7.2;100.0;100280;;;;
2023/03/26 03:22:00;;;;;;;1.5;1.5;;;;;;;7.2;100.0;100280;;;;
2023/03/26 03:23:00;;;;;;;1.5;1.5;;;;;;;7.3;100.0;100270;;;;
2023/03/26 03:24:00;;;;;;;1.5;1.5;;;;;;;7.3;100.0;100270;;;;
2023/03/26 03:25:00;;;;;;;1.5;1.5;;;;;;;7.3;100.0;100270;;;;
2023/03/26 03:26:01;;;;;;;1.5;1.5;;;;;;;7.3;100.0;100270;;;;
2023/03/26 03:27:00;;;;;;;1.5;1.5;;;;;;;7.3;100.0;100260;;;;
2023/03/26 03:28:00;;;;;;;1.5;1.5;;;;;;;7.3;100.0;100260;;;;
2023/03/26 03:29:00;;;;;;;1.5;1.5;;;;;;;7.3;100.0;100260;;;;
2023/03/26 03:30:00;;;;;;;1.5;1.5;;;;;;;7.3;100.0;100260;;;;
2023/03/26 03:31:00;;;;;;;1.5;1.5;;;;;;;7.3;100.0;100260;;;;
2023/03/26 03:32:00;;;;;;;1.5;1.5;;;;;;;7.3;100.0;100260;;;;
2023/03/26 03:33:01;;;;;;;1.5;1.5;;;;;;;7.3;100.0;100260;;;;
2023/03/26 03:34:00;;;;;;;1.5;1.5;;;;;;;7.3;100.0;100260;;;;
2023/03/26 03:35:00;;;;;;;1.4;1.4;;;;;;;7.4;100.0;100260;;;;
2023/03/26 03:36:00;;;;;;;1.4;1.4;;;;;;;7.4;100.0;100260;;;;
2023/03/26 03:37:00;;;;;;;1.4;1.4;;;;;;;7.3;100.0;100260;;;;
2023/03/26 03:38:00;;;;;;;1.4;1.4;;;;;;;7.3;100.0;100260;;;;
2023/03/26 03:39:01;;;;;;;1.4;1.4;;;;;;;7.3;100.0;100260;;;;
2023/03/26 03:40:00;;;;;;;1.4;1.4;;;;;;;7.3;100.0;100260;;;;
2023/03/26 03:41:00;;;;;;;1.4;1.4;;;;;;;7.3;100.0;100250;;;;
2023/03/26 03:42:00;;;;;;;1.4;1.4;;;;;;;7.3;100.0;100250;;;;
2023/03/26 03:43:00;;;;;;;1.4;1.4;;;;;;;7.3;100.0;100250;;;;
2023/03/26 03:44:00;;;;;;;1.4;1.4;;;;;;;7.3;100.0;100250;;;;
2023/03/26 03:45:01;;;;;;;1.4;1.4;;;;;;;7.3;100.0;100250;;;;
2023/03/26 03:46:00;;;;;;;1.4;1.4;;;;;;;7.3;100.0;100250;;;;
2023/03/26 03:47:00;;;;;;;1.4;1.4;;;;;;;7.3;100.0;100250;;;;
2023/03/26 03:48:00;;;;;;;1.4;1.4;;;;;;;7.3;100.0;100250;;;;
2023/03/26 03:49:00;;;;;;;1.4;1.4;;;;;;;7.3;100.0;100250;;;;
2023/03/26 03:50:00;;;;;;;1.4;1.4;;;;;;;7.3;100.0;100250;;;;
2023/03/26 03:51:00;;;;;;;1.4;1.4;;;;;;;7.3;100.0;100240;;;;
2023/03/26 03:52:00;;;;;;;1.4;1.4;;;;;;;7.3;100.0;100240;;;;
2023/03/26 03:53:00;;;;;;;1.4;1.4;;;;;;;7.4;100.0;100240;;;;
2023/03/26 03:54:00;;;;;;;1.4;1.4;;;;;;;7.4;100.0;100240;;;;
2023/03/26 03:55:00;;;;;;;1.5;1.5;;;;;;;7.3;100.0;100240;;;;
2023/03/26 03:56:00;;;;;;;1.5;1.5;;;;;;;7.3;100.0;100240;;;;
2023/03/26 03:57:00;;;;;;;1.5;1.5;;;;;;;7.3;100.0;100240;;;;
2023/03/26 03:58:00;;;;;;;1.5;1.5;;;;;;;7.3;100.0;100240;;;;
2023/03/26 03:59:00;;;;;;;1.5;1.5;;;;;;;7.4;100.0;100240;;;;
2023/03/26 04:00:00;;;;;;;1.5;1.5;;;;;;;7.4;100.0;100240;;;;
2023/03/26 04:01:01;;;;;;;1.5;1.5;;;;;;;7.4;100.0;100240;;;;
2023/03/26 04:02:00;;;;;;;1.5;1.5;;;;;;;7.4;100.0;100240;;;;
2023/03/26 04:03:04;;;;;;;1.5;1.5;;;;;;;7.4;100.0;100230;;;;
2023/03/26 04:04:00;;;;;;;1.5;1.5;;;;;;;7.4;100.0;100230;;;;
2023/03/26 04:05:01;;;;;;;1.5;1.5;;;;;;;7.4;100.0;100230;;;;
2023/03/26 04:06:00;;;;;;;1.5;1.5;;;;;;;7.4;100.0;100230;;;;
2023/03/26 04:07:00;;;;;;;1.5;1.5;;;;;;;7.4;100.0;100230;;;;
2023/03/26 04:08:00;;;;;;;1.5;1.5;;;;;;;7.4;100.0;100230;;;;
2023/03/26 04:09:00;;;;;;;1.5;1.5;;;;;;;7.4;100.0;100220;;;;
2023/03/26 04:10:03;;;;;;;1.5;1.5;;;;;;;7.4;100.0;100220;;;;
2023/03/26 04:11:00;;;;;;;1.5;1.5;;;;;;;7.5;100.0;100220;;;;
2023/03/26 04:12:00;;;;;;;1.5;1.5;;;;;;;7.5;100.0;100220;;;;
2023/03/26 04:13:00;;;;;;;1.5;1.5;;;;;;;7.5;100.0;100210;;;;
2023/03/26 04:14:00;;;;;;;1.5;1.5;;;;;;;7.5;100.0;100210;;;;
2023/03/26 04:15:00;;;;;;;1.2;1.2;;;;;;;7.5;100.0;100210;;;;
2023/03/26 04:16:00;;;;;;;1.2;1.2;;;;;;;7.5;100.0;100210;;;;
2023/03/26 04:17:01;;;;;;;1.2;1.2;;;;;;;7.4;100.0;100210;;;;
2023/03/26 04:18:00;;;;;;;1.2;1.2;;;;;;;7.4;100.0;100210;;;;
2023/03/26 04:19:01;;;;;;;1.2;1.2;;;;;;;7.5;100.0;100200;;;;
2023/03/26 04:20:13;;;;;;;1.2;1.2;;;;;;;7.5;100.0;100200;;;;
2023/03/26 04:21:01;;;;;;;1.2;1.2;;;;;;;7.5;100.0;100200;;;;
2023/03/26 04:22:01;;;;;;;1.2;1.2;;;;;;;7.5;100.0;100200;;;;
2023/03/26 04:23:00;;;;;;;1.2;1.2;;;;;;;7.6;100.0;100200;;;;
2023/03/26 04:24:00;;;;;;;1.2;1.2;;;;;;;7.6;100.0;100200;;;;
2023/03/26 04:25:01;;;;;;;1.2;1.2;;;;;;;7.5;100.0;100200;;;;
2023/03/26 04:26:02;;;;;;;1.2;1.2;;;;;;;7.5;100.0;100200;;;;
2023/03/26 04:27:00;;;;;;;1.2;1.2;;;;;;;7.6;100.0;100190;;;;
2023/03/26 04:28:05;;;;;;;1.2;1.2;;;;;;;7.6;100.0;100190;;;;
2023/03/26 04:29:02;;;;;;;1.2;1.2;;;;;;;7.5;100.0;100190;;;;
2023/03/26 04:30:00;;;;;;;1.2;1.2;;;;;;;7.5;100.0;100190;;;;
2023/03/26 04:31:02;;;;;;;1.2;1.2;;;;;;;7.6;100.0;100190;;;;
2023/03/26 04:32:05;;;;;;;1.2;1.2;;;;;;;7.6;100.0;100190;;;;
2023/03/26 04:33:02;;;;;;;1.2;1.2;;;;;;;7.5;100.0;100190;;;;
2023/03/26 04:34:05;;;;;;;1.2;1.2;;;;;;;7.5;100.0;100190;;;;
2023/03/26 04:35:02;;;;;;;1.4;1.4;;;;;;;7.6;100.0;100180;;;;
2023/03/26 04:36:01;;;;;;;1.4;1.4;;;;;;;7.6;100.0;100180;;;;
2023/03/26 04:37:01;;;;;;;1.4;1.4;;;;;;;7.6;100.0;100180;;;;
2023/03/26 04:38:05;;;;;;;1.4;1.4;;;;;;;7.6;100.0;100180;;;;
2023/03/26 04:39:03;;;;;;;1.4;1.4;;;;;;;7.6;100.0;100180;;;;
2023/03/26 04:40:01;;;;;;;1.4;1.4;;;;;;;7.6;100.0;100180;;;;
2023/03/26 04:41:06;;;;;;;1.4;1.4;;;;;;;7.7;100.0;100180;;;;
2023/03/26 04:42:00;;;;;;;1.4;1.4;;;;;;;7.7;100.0;100180;;;;
2023/03/26 04:43:01;;;;;;;1.4;1.4;;;;;;;7.7;100.0;100180;;;;
2023/03/26 04:44:00;;;;;;;1.4;1.4;;;;;;;7.7;100.0;100180;;;;
2023/03/26 04:45:01;;;;;;;1.4;1.4;;;;;;;7.6;100.0;100170;;;;
2023/03/26 04:46:02;;;;;;;1.4;1.4;;;;;;;7.6;100.0;100170;;;;
2023/03/26 04:47:00;;;;;;;1.4;1.4;;;;;;;7.6;100.0;100170;;;;
2023/03/26 04:48:01;;;;;;;1.4;1.4;;;;;;;7.6;100.0;100170;;;;
2023/03/26 04:49:00;;;;;;;1.4;1.4;;;;;;;7.6;100.0;100160;;;;
2023/03/26 04:50:00;;;;;;;1.4;1.4;;;;;;;7.6;100.0;100160;;;;
2023/03/26 04:51:00;;;;;;;1.4;1.4;;;;;;;7.6;100.0;100160;;;;
2023/03/26 04:52:00;;;;;;;1.4;1.4;;;;;;;7.6;100.0;100160;;;;
2023/03/26 04:53:01;;;;;;;1.4;1.4;;;;;;;7.6;100.0;100150;;;;
2023/03/26 04:54:01;;;;;;;1.4;1.4;;;;;;;7.6;100.0;100150;;;;
2023/03/26 04:55:00;;;;;;;1.4;1.4;;;;;;;7.8;100.0;100150;;;;
2023/03/26 04:56:06;;;;;;;1.4;1.4;;;;;;;7.8;100.0;100150;;;;
2023/03/26 04:57:03;;;;;;;1.4;1.4;;;;;;;7.7;100.0;100140;;;;
2023/03/26 04:58:04;;;;;;;1.4;1.4;;;;;;;7.7;100.0;100140;;;;
2023/03/26 04:59:00;;;;;;;1.4;1.4;;;;;;;7.8;100.0;100140;;;;
2023/03/26 05:00:01;;;;;;;1.4;1.4;;;;;;;7.8;100.0;100140;;;;
2023/03/26 05:01:10;;;;;;;1.4;1.4;;;;;;;7.7;100.0;100140;;;;
2023/03/26 05:02:01;;;;;;;1.4;1.4;;;;;;;7.7;100.0;100140;;;;
2023/03/26 05:03:00;;;;;;;1.4;1.4;;;;;;;7.8;100.0;100130;;;;
2023/03/26 05:04:00;;;;;;;1.4;1.4;;;;;;;7.8;100.0;100130;;;;
2023/03/26 05:05:01;;;;;;;1.4;1.4;;;;;;;7.7;100.0;100130;;;;
2023/03/26 05:06:01;;;;;;;1.4;1.4;;;;;;;7.7;100.0;100130;;;;
2023/03/26 05:07:01;;;;;;;1.4;1.4;;;;;;;7.6;100.0;100120;;;;
2023/03/26 05:08:00;;;;;;;1.4;1.4;;;;;;;7.6;100.0;100120;;;;
2023/03/26 05:09:01;;;;;;;1.4;1.4;;;;;;;7.7;100.0;100120;;;;
2023/03/26 05:10:02;;;;;;;1.4;1.4;;;;;;;7.7;100.0;100120;;;;
2023/03/26 05:11:00;;;;;;;1.4;1.4;;;;;;;7.8;100.0;100120;;;;
2023/03/26 05:12:00;;;;;;;1.4;1.4;;;;;;;7.8;100.0;100120;;;;
2023/03/26 05:13:00;;;;;;;1.4;1.4;;;;;;;7.7;100.0;100120;;;;
2023/03/26 05:14:00;;;;;;;1.4;1.4;;;;;;;7.7;100.0;100120;;;;
2023/03/26 05:15:00;;;;;;;1.1;1.1;;;;;;;7.7;100.0;100120;;;;
2023/03/26 05:16:00;;;;;;;1.1;1.1;;;;;;;7.7;100.0;100120;;;;
2023/03/26 05:17:00;;;;;;;1.1;1.1;;;;;;;7.7;100.0;100110;;;;
2023/03/26 05:18:00;;;;;;;1.1;1.1;;;;;;;7.7;100.0;100110;;;;
2023/03/26 05:19:00;;;;;;;1.1;1.1;;;;;;;7.7;100.0;100110;;;;
2023/03/26 05:20:00;;;;;;;1.1;1.1;;;;;;;7.7;100.0;100110;;;;
2023/03/26 05:21:00;;;;;;;1.1;1.1;;;;;;;7.7;100.0;100110;;;;
2023/03/26 05:22:01;;;;;;;1.1;1.1;;;;;;;7.7;100.0;100110;;;;
2023/03/26 05:23:00;;;;;;;1.1;1.1;;;;;;;7.7;100.0;100110;;;;
2023/03/26 05:24:00;;;;;;;1.1;1.1;;;;;;;7.7;100.0;100110;;;;
2023/03/26 05:25:00;;;;;;;1.1;1.1;;;;;;;7.7;100.0;100100;;;;
2023/03/26 05:26:00;;;;;;;1.1;1.1;;;;;;;7.7;100.0;100100;;;;
2023/03/26 05:27:00;;;;;;;1.1;1.1;;;;;;;7.6;100.0;100100;;;;
2023/03/26 05:28:00;;;;;;;1.1;1.1;;;;;;;7.6;100.0;100100;;;;
2023/03/26 05:29:01;;;;;;;1.1;1.1;;;;;;;7.7;100.0;100100;;;;
2023/03/26 05:30:00;;;;;;;1.1;1.1;;;;;;;7.7;100.0;100100;;;;
2023/03/26 05:31:01;;;;;;;1.1;1.1;;;;;;;7.7;100.0;100100;;;;
2023/03/26 05:32:00;;;;;;;1.1;1.1;;;;;;;7.7;100.0;100100;;;;
2023/03/26 05:33:01;;;;;;;1.1;1.1;;;;;;;7.9;100.0;100090;;;;
2023/03/26 05:34:00;;;;;;;1.1;1.1;;;;;;;7.9;100.0;100090;;;;
2023/03/26 05:35:00;;;;;;;1.4;1.4;;;;;;;7.8;100.0;100090;;;;
2023/03/26 05:36:02;;;;;;;1.4;1.4;;;;;;;7.8;100.0;100090;;;;
2023/03/26 05:37:02;;;;;;;1.4;1.4;;;;;;;7.8;100.0;100090;;;;
2023/03/26 05:38:00;;;;;;;1.4;1.4;;;;;;;7.8;100.0;100090;;;;
2023/03/26 05:39:00;;;;;;;1.4;1.4;;;;;;;7.8;100.0;100090;;;;
2023/03/26 05:40:00;;;;;;;1.4;1.4;;;;;;;7.8;100.0;100090;;;;
2023/03/26 05:41:02;;;;;;;1.4;1.4;;;;;;;7.6;100.0;100080;;;;
2023/03/26 05:42:00;;;;;;;1.4;1.4;;;;;;;7.6;100.0;100080;;;;
2023/03/26 05:43:00;;;;;;;1.4;1.4;;;;;;;7.6;100.0;100080;;;;
2023/03/26 05:44:00;;;;;;;1.4;1.4;;;;;;;7.6;100.0;100080;;;;
2023/03/26 05:45:00;;;;;;;1.4;1.4;;;;;;;7.6;100.0;100070;;;;
2023/03/26 05:46:00;;;;;;;1.4;1.4;;;;;;;7.6;100.0;100070;;;;
2023/03/26 05:47:00;;;;;;;1.4;1.4;;;;;;;7.5;100.0;100070;;;;
2023/03/26 05:48:00;;;;;;;1.4;1.4;;;;;;;7.5;100.0;100070;;;;
2023/03/26 05:49:00;;;;;;;1.4;1.4;;;;;;;7.5;100.0;100070;;;;
2023/03/26 05:50:00;;;;;;;1.4;1.4;;;;;;;7.5;100.0;100070;;;;
2023/03/26 05:51:00;;;;;;;1.4;1.4;;;;;;;7.6;100.0;100070;;;;
2023/03/26 05:52:00;;;;;;;1.4;1.4;;;;;;;7.6;100.0;100070;;;;
2023/03/26 05:53:00;;;;;;;1.4;1.4;;;;;;;7.6;100.0;100070;;;;
2023/03/26 05:54:00;;;;;;;1.4;1.4;;;;;;;7.6;100.0;100070;;;;
2023/03/26 05:55:00;;;;;;;1.4;1.4;;;;;;;7.6;100.0;100060;;;;
2023/03/26 05:56:00;;;;;;;1.4;1.4;;;;;;;7.6;100.0;100060;;;;
2023/03/26 05:57:00;;;;;;;1.4;1.4;;;;;;;7.6;100.0;100060;;;;
2023/03/26 05:58:00;;;;;;;1.4;1.4;;;;;;;7.6;100.0;100060;;;;
2023/03/26 05:59:00;;;;;;;1.4;1.4;;;;;;;7.7;100.0;100060;;;;
2023/03/26 06:00:00;;;;;;;1.4;1.4;;;;;;;7.7;100.0;100060;;;;
2023/03/26 06:01:04;;;;;;;1.4;1.4;;;;;;;7.7;100.0;100050;;;;
2023/03/26 06:02:00;;;;;;;1.4;1.4;;;;;;;7.7;100.0;100050;;;;
2023/03/26 06:03:00;;;;;;;1.4;1.4;;;;;;;7.6;100.0;100060;;;;
2023/03/26 06:04:00;;;;;;;1.4;1.4;;;;;;;7.6;100.0;100060;;;;
2023/03/26 06:05:01;;;;;;;1.4;1.4;;;;;;;7.7;100.0;100060;;;;
2023/03/26 06:06:00;;;;;;;1.4;1.4;;;;;;;7.7;100.0;100060;;;;
2023/03/26 06:07:01;;;;;;;1.4;1.4;;;;;;;7.9;100.0;100050;;;;
2023/03/26 06:08:00;;;;;;;1.4;1.4;;;;;;;7.9;100.0;100050;;;;
2023/03/26 06:09:03;;;;;;;1.4;1.4;;;;;;;7.7;100.0;100050;;;;
2023/03/26 06:10:01;;;;;;;1.4;1.4;;;;;;;7.7;100.0;100050;;;;
2023/03/26 06:11:01;;;;;;;1.4;1.4;;;;;;;7.8;100.0;100050;;;;
2023/03/26 06:12:00;;;;;;;1.4;1.4;;;;;;;7.8;100.0;100050;;;;
2023/03/26 06:13:00;;;;;;;1.4;1.4;;;;;;;7.7;100.0;100050;;;;
2023/03/26 06:14:00;;;;;;;1.4;1.4;;;;;;;7.7;100.0;100050;;;;
2023/03/26 06:15:00;;;;;;;1.3;1.3;;;;;;;7.8;100.0;100050;;;;
2023/03/26 06:16:00;;;;;;;1.3;1.3;;;;;;;7.8;100.0;100050;;;;
2023/03/26 06:17:00;;;;;;;1.3;1.3;;;;;;;7.8;100.0;100040;;;;
2023/03/26 06:18:00;;;;;;;1.3;1.3;;;;;;;7.8;100.0;100040;;;;
2023/03/26 06:19:00;;;;;;;1.3;1.3;;;;;;;7.8;100.0;100040;;;;
2023/03/26 06:20:00;;;;;;;1.3;1.3;;;;;;;7.8;100.0;100040;;;;
2023/03/26 06:21:00;;;;;;;1.3;1.3;;;;;;;7.8;100.0;100040;;;;
2023/03/26 06:22:00;;;;;;;1.3;1.3;;;;;;;7.8;100.0;100040;;;;
2023/03/26 06:23:00;;;;;;;1.3;1.3;;;;;;;7.8;100.0;100040;;;;
2023/03/26 06:24:00;;;;;;;1.3;1.3;;;;;;;7.8;100.0;100040;;;;
2023/03/26 06:25:00;;;;;;;1.3;1.3;;;;;;;7.8;100.0;100040;;;;
2023/03/26 06:26:00;;;;;;;1.3;1.3;;;;;;;7.8;100.0;100040;;;;
2023/03/26 06:27:00;;;;;;;1.3;1.3;;;;;;;7.8;100.0;100030;;;;
2023/03/26 06:28:00;;;;;;;1.3;1.3;;;;;;;7.8;100.0;100030;;;;
2023/03/26 06:29:00;;;;;;;1.3;1.3;;;;;;;7.7;100.0;100030;;;;